Terminal Aerodrome Forecast
Issued by NWS

Home | Current Version | Previous Version | Text Only | Print | Product List | Glossary On
Versions: 1 2 3 4 5 6 7 8 9 10 11 12
000
FTUS42 TJSJ 281745
TAFJSJ
TAF
TJSJ 281745Z 2818/2918 08015KT P6SM VCSH SCT040 SCT060
     FM282330 12005KT P6SM SCT030 SCT050
     FM291300 09012KT P6SM FEW025 SCT060=

USA.gov is the U.S. government's official web portal to all federal, state and local government web resources and services.